Terminal Aerodrome Forecast
Issued by NWS

Home | Current Version | Previous Version | Text Only | Print | Product List | Glossary On
Versions: 1 2 3 4 5 6 7 8 9 10 11 12 13 14 15 16 17 18 19 20 21 22 23 24 25 26 27 28 29
000
FTUS43 KSGF 152331
TAFJLN
TAF
KJLN 152331Z 1600/1624 12004KT P6SM BKN150
     FM160300 17005KT P6SM VCTS BKN060CB OVC150
     FM161800 20010KT P6SM BKN110
     FM162300 19009KT P6SM SCT150=

USA.gov is the U.S. government's official web portal to all federal, state and local government web resources and services.